Butler, Illinois
Current Conditions -  °F | °C
As of 2:35 PM on Monday 26 Jan 2015 (Local Time) from K3LF Reporting Station
Overcast Overcast  
Wind Chill: 21°   Ceiling: 900
Heat Index: 30°   Visibility: 7mi
Dew Point: 26°   Wind: 9mph
Humidity: 86%   Direction: 170°S
Pressure: 29.88"   Gusts: NA
Location:  39.2°N, 89.53°W
Report Text: K3LF 262035Z AUTO 17008KT 7SM BKN009 OVC070 M01/M03 A2988 RMK AO2 T10121032
Loading
Personal Weather Stations






























Interactive Weather Map New forecast layout! Learn more

10-Day Weather Forecast

Advertisements
Track Severe Weather on mobile